sensor_id;sensor_type;location;lat;lon;timestamp;temperature;humidity
73780;SHT30;62093;37.614;15.072;2023-09-19T00:00:21;24.85;52.08
73780;SHT30;62093;37.614;15.072;2023-09-19T00:02:57;24.85;52.28
73780;SHT30;62093;37.614;15.072;2023-09-19T00:05:25;24.87;53.27
73780;SHT30;62093;37.614;15.072;2023-09-19T00:07:55;24.85;53.89
73780;SHT30;62093;37.614;15.072;2023-09-19T00:10:22;24.85;53.62
73780;SHT30;62093;37.614;15.072;2023-09-19T00:12:54;24.85;54.49
73780;SHT30;62093;37.614;15.072;2023-09-19T00:15:27;24.87;56.77
73780;SHT30;62093;37.614;15.072;2023-09-19T00:17:56;24.82;57.54
73780;SHT30;62093;37.614;15.072;2023-09-19T00:20:23;24.84;56.93
73780;SHT30;62093;37.614;15.072;2023-09-19T00:22:50;24.81;57.04
73780;SHT30;62093;37.614;15.072;2023-09-19T00:25:17;24.67;59.27
73780;SHT30;62093;37.614;15.072;2023-09-19T00:27:44;24.67;58.93
73780;SHT30;62093;37.614;15.072;2023-09-19T00:30:11;24.69;58.12
73780;SHT30;62093;37.614;15.072;2023-09-19T00:32:48;24.72;58.31
73780;SHT30;62093;37.614;15.072;2023-09-19T00:35:14;24.69;57.98
73780;SHT30;62093;37.614;15.072;2023-09-19T00:37:44;24.65;58.28
73780;SHT30;62093;37.614;15.072;2023-09-19T00:40:11;24.69;58.68
73780;SHT30;62093;37.614;15.072;2023-09-19T00:42:39;24.63;59.50
73780;SHT30;62093;37.614;15.072;2023-09-19T00:45:06;24.68;58.10
73780;SHT30;62093;37.614;15.072;2023-09-19T00:47:35;24.61;58.80
73780;SHT30;62093;37.614;15.072;2023-09-19T00:50:03;24.63;58.18
73780;SHT30;62093;37.614;15.072;2023-09-19T00:52:30;24.65;58.11
73780;SHT30;62093;37.614;15.072;2023-09-19T00:54:57;24.67;58.02
73780;SHT30;62093;37.614;15.072;2023-09-19T00:57:25;24.61;58.44
73780;SHT30;62093;37.614;15.072;2023-09-19T00:59:53;24.60;58.66
73780;SHT30;62093;37.614;15.072;2023-09-19T01:02:21;24.60;58.89
73780;SHT30;62093;37.614;15.072;2023-09-19T01:04:47;24.58;58.81
73780;SHT30;62093;37.614;15.072;2023-09-19T01:07:13;24.58;58.20
73780;SHT30;62093;37.614;15.072;2023-09-19T01:09:41;24.57;58.18
73780;SHT30;62093;37.614;15.072;2023-09-19T01:12:08;24.58;58.01
73780;SHT30;62093;37.614;15.072;2023-09-19T01:14:46;24.57;57.67
73780;SHT30;62093;37.614;15.072;2023-09-19T01:17:26;24.54;58.48
73780;SHT30;62093;37.614;15.072;2023-09-19T01:22:53;24.56;58.28
73780;SHT30;62093;37.614;15.072;2023-09-19T01:31:29;24.56;57.12
73780;SHT30;62093;37.614;15.072;2023-09-19T01:34:01;24.51;57.54
73780;SHT30;62093;37.614;15.072;2023-09-19T01:36:36;24.50;57.98
73780;SHT30;62093;37.614;15.072;2023-09-19T01:39:08;24.53;57.19
73780;SHT30;62093;37.614;15.072;2023-09-19T01:42:01;24.50;57.09
73780;SHT30;62093;37.614;15.072;2023-09-19T01:47:53;24.50;58.16
73780;SHT30;62093;37.614;15.072;2023-09-19T01:50:44;24.50;57.94
73780;SHT30;62093;37.614;15.072;2023-09-19T01:53:24;24.50;56.87
73780;SHT30;62093;37.614;15.072;2023-09-19T01:55:54;24.46;57.15
73780;SHT30;62093;37.614;15.072;2023-09-19T02:00:51;24.48;56.87
73780;SHT30;62093;37.614;15.072;2023-09-19T02:03:20;24.48;56.89
73780;SHT30;62093;37.614;15.072;2023-09-19T02:05:50;24.47;56.69
73780;SHT30;62093;37.614;15.072;2023-09-19T02:08:18;24.43;55.96
73780;SHT30;62093;37.614;15.072;2023-09-19T02:10:45;24.43;57.45
73780;SHT30;62093;37.614;15.072;2023-09-19T02:13:21;24.41;57.19
73780;SHT30;62093;37.614;15.072;2023-09-19T02:15:50;24.43;57.28
73780;SHT30;62093;37.614;15.072;2023-09-19T02:18:16;24.38;57.16
73780;SHT30;62093;37.614;15.072;2023-09-19T02:20:42;24.40;57.13
73780;SHT30;62093;37.614;15.072;2023-09-19T02:23:09;24.36;57.14
73780;SHT30;62093;37.614;15.072;2023-09-19T02:25:35;24.43;56.97
73780;SHT30;62093;37.614;15.072;2023-09-19T02:28:01;24.44;56.75
73780;SHT30;62093;37.614;15.072;2023-09-19T02:30:31;24.40;56.51
73780;SHT30;62093;37.614;15.072;2023-09-19T02:32:57;24.41;55.91
73780;SHT30;62093;37.614;15.072;2023-09-19T02:35:23;24.37;55.64
73780;SHT30;62093;37.614;15.072;2023-09-19T02:37:50;24.36;55.21
73780;SHT30;62093;37.614;15.072;2023-09-19T02:40:17;24.34;55.46
73780;SHT30;62093;37.614;15.072;2023-09-19T02:42:48;24.36;55.48
73780;SHT30;62093;37.614;15.072;2023-09-19T02:45:16;24.37;55.24
73780;SHT30;62093;37.614;15.072;2023-09-19T02:47:48;24.34;54.40
73780;SHT30;62093;37.614;15.072;2023-09-19T02:50:17;24.33;54.45
73780;SHT30;62093;37.614;15.072;2023-09-19T02:52:45;24.28;53.65
73780;SHT30;62093;37.614;15.072;2023-09-19T02:55:20;24.28;53.14
73780;SHT30;62093;37.614;15.072;2023-09-19T02:57:49;24.34;54.80
73780;SHT30;62093;37.614;15.072;2023-09-19T03:00:17;24.33;53.50
73780;SHT30;62093;37.614;15.072;2023-09-19T03:02:56;24.34;53.65
73780;SHT30;62093;37.614;15.072;2023-09-19T03:05:24;24.34;53.63
73780;SHT30;62093;37.614;15.072;2023-09-19T03:07:52;24.33;54.52
73780;SHT30;62093;37.614;15.072;2023-09-19T03:10:20;24.37;53.75
73780;SHT30;62093;37.614;15.072;2023-09-19T03:12:47;24.38;54.40
73780;SHT30;62093;37.614;15.072;2023-09-19T03:15:14;24.40;54.61
73780;SHT30;62093;37.614;15.072;2023-09-19T03:17:46;24.36;53.36
73780;SHT30;62093;37.614;15.072;2023-09-19T03:20:16;24.36;53.51
73780;SHT30;62093;37.614;15.072;2023-09-19T03:22:48;24.37;53.51
73780;SHT30;62093;37.614;15.072;2023-09-19T03:25:17;24.34;53.10
73780;SHT30;62093;37.614;15.072;2023-09-19T03:27:46;24.36;53.21
73780;SHT30;62093;37.614;15.072;2023-09-19T03:30:14;24.31;52.11
73780;SHT30;62093;37.614;15.072;2023-09-19T03:32:45;24.31;52.60
73780;SHT30;62093;37.614;15.072;2023-09-19T03:35:11;24.34;52.16
73780;SHT30;62093;37.614;15.072;2023-09-19T03:37:41;24.33;51.94
73780;SHT30;62093;37.614;15.072;2023-09-19T03:40:09;24.30;52.31
73780;SHT30;62093;37.614;15.072;2023-09-19T03:42:40;24.30;51.95
73780;SHT30;62093;37.614;15.072;2023-09-19T03:45:08;24.34;52.66
73780;SHT30;62093;37.614;15.072;2023-09-19T03:47:39;24.33;52.25
73780;SHT30;62093;37.614;15.072;2023-09-19T03:50:08;24.34;51.99
73780;SHT30;62093;37.614;15.072;2023-09-19T03:52:37;24.31;51.87
73780;SHT30;62093;37.614;15.072;2023-09-19T03:55:03;24.31;53.47
73780;SHT30;62093;37.614;15.072;2023-09-19T03:57:30;24.31;51.00
73780;SHT30;62093;37.614;15.072;2023-09-19T03:59:56;24.28;51.79
73780;SHT30;62093;37.614;15.072;2023-09-19T04:02:23;24.31;51.79
73780;SHT30;62093;37.614;15.072;2023-09-19T04:04:51;24.31;51.58
73780;SHT30;62093;37.614;15.072;2023-09-19T04:07:18;24.28;50.99
73780;SHT30;62093;37.614;15.072;2023-09-19T04:09:48;24.31;51.44
73780;SHT30;62093;37.614;15.072;2023-09-19T04:12:15;24.28;50.76
73780;SHT30;62093;37.614;15.072;2023-09-19T04:14:43;24.30;50.68
73780;SHT30;62093;37.614;15.072;2023-09-19T04:17:09;24.28;50.46
73780;SHT30;62093;37.614;15.072;2023-09-19T04:19:37;24.28;50.72
73780;SHT30;62093;37.614;15.072;2023-09-19T04:22:04;24.34;52.59
73780;SHT30;62093;37.614;15.072;2023-09-19T04:24:31;24.30;50.46
73780;SHT30;62093;37.614;15.072;2023-09-19T04:27:00;24.33;50.70
73780;SHT30;62093;37.614;15.072;2023-09-19T04:29:26;24.31;50.00
73780;SHT30;62093;37.614;15.072;2023-09-19T04:31:55;24.30;50.48
73780;SHT30;62093;37.614;15.072;2023-09-19T04:34:22;24.30;50.28
73780;SHT30;62093;37.614;15.072;2023-09-19T04:36:49;24.33;50.19
73780;SHT30;62093;37.614;15.072;2023-09-19T04:39:15;24.30;50.17
73780;SHT30;62093;37.614;15.072;2023-09-19T04:41:42;24.31;49.98
73780;SHT30;62093;37.614;15.072;2023-09-19T04:44:08;24.30;50.36
73780;SHT30;62093;37.614;15.072;2023-09-19T04:46:34;24.28;50.56
73780;SHT30;62093;37.614;15.072;2023-09-19T04:49:01;24.33;50.83
73780;SHT30;62093;37.614;15.072;2023-09-19T04:51:28;24.36;50.33
73780;SHT30;62093;37.614;15.072;2023-09-19T04:54:01;24.31;49.98
73780;SHT30;62093;37.614;15.072;2023-09-19T04:56:27;24.30;49.74
73780;SHT30;62093;37.614;15.072;2023-09-19T04:58:54;24.33;50.06
73780;SHT30;62093;37.614;15.072;2023-09-19T05:01:20;24.28;50.15
73780;SHT30;62093;37.614;15.072;2023-09-19T05:03:49;24.31;50.57
73780;SHT30;62093;37.614;15.072;2023-09-19T05:06:21;24.30;50.18
73780;SHT30;62093;37.614;15.072;2023-09-19T05:08:50;24.31;50.06
73780;SHT30;62093;37.614;15.072;2023-09-19T05:11:19;24.30;50.25
73780;SHT30;62093;37.614;15.072;2023-09-19T05:13:47;24.30;50.03
73780;SHT30;62093;37.614;15.072;2023-09-19T05:16:16;24.28;49.70
73780;SHT30;62093;37.614;15.072;2023-09-19T05:18:42;24.27;49.17
73780;SHT30;62093;37.614;15.072;2023-09-19T05:21:08;24.28;49.01
73780;SHT30;62093;37.614;15.072;2023-09-19T05:23:36;24.27;49.40
73780;SHT30;62093;37.614;15.072;2023-09-19T05:26:02;24.28;49.15
73780;SHT30;62093;37.614;15.072;2023-09-19T05:28:29;24.26;49.50
73780;SHT30;62093;37.614;15.072;2023-09-19T05:30:55;24.30;49.21
73780;SHT30;62093;37.614;15.072;2023-09-19T05:33:21;24.31;49.52
73780;SHT30;62093;37.614;15.072;2023-09-19T05:35:50;24.31;49.20
73780;SHT30;62093;37.614;15.072;2023-09-19T05:38:16;24.28;49.42
73780;SHT30;62093;37.614;15.072;2023-09-19T05:40:45;24.30;50.21
73780;SHT30;62093;37.614;15.072;2023-09-19T05:43:11;24.30;49.59
73780;SHT30;62093;37.614;15.072;2023-09-19T05:45:40;24.30;50.09
73780;SHT30;62093;37.614;15.072;2023-09-19T05:48:11;24.30;49.41
73780;SHT30;62093;37.614;15.072;2023-09-19T05:50:39;24.30;50.58
73780;SHT30;62093;37.614;15.072;2023-09-19T05:53:05;24.33;50.03
73780;SHT30;62093;37.614;15.072;2023-09-19T05:55:32;24.33;49.77
73780;SHT30;62093;37.614;15.072;2023-09-19T05:57:58;24.33;50.30
73780;SHT30;62093;37.614;15.072;2023-09-19T06:00:25;24.34;50.00
73780;SHT30;62093;37.614;15.072;2023-09-19T06:02:54;24.33;49.87
73780;SHT30;62093;37.614;15.072;2023-09-19T06:05:27;24.34;49.71
73780;SHT30;62093;37.614;15.072;2023-09-19T06:07:54;24.34;51.05
73780;SHT30;62093;37.614;15.072;2023-09-19T06:10:22;24.37;51.08
73780;SHT30;62093;37.614;15.072;2023-09-19T06:12:49;24.37;51.89
73780;SHT30;62093;37.614;15.072;2023-09-19T06:15:16;24.40;51.40
73780;SHT30;62093;37.614;15.072;2023-09-19T06:17:51;24.40;50.95
73780;SHT30;62093;37.614;15.072;2023-09-19T06:20:23;24.43;52.00
73780;SHT30;62093;37.614;15.072;2023-09-19T06:22:51;24.43;52.51
73780;SHT30;62093;37.614;15.072;2023-09-19T06:25:18;24.43;52.58
73780;SHT30;62093;37.614;15.072;2023-09-19T06:27:49;24.46;52.93
73780;SHT30;62093;37.614;15.072;2023-09-19T06:30:22;24.46;52.76
73780;SHT30;62093;37.614;15.072;2023-09-19T06:32:56;24.46;52.94
73780;SHT30;62093;37.614;15.072;2023-09-19T06:35:22;24.50;53.08
73780;SHT30;62093;37.614;15.072;2023-09-19T06:37:49;24.48;52.62
73780;SHT30;62093;37.614;15.072;2023-09-19T06:40:15;24.51;52.81
73780;SHT30;62093;37.614;15.072;2023-09-19T06:42:43;24.46;52.97
73780;SHT30;62093;37.614;15.072;2023-09-19T06:45:10;24.48;52.95
73780;SHT30;62093;37.614;15.072;2023-09-19T06:47:44;24.51;52.78
73780;SHT30;62093;37.614;15.072;2023-09-19T06:50:11;24.51;52.85
73780;SHT30;62093;37.614;15.072;2023-09-19T06:52:41;24.50;52.62
73780;SHT30;62093;37.614;15.072;2023-09-19T06:55:07;24.48;52.84
73780;SHT30;62093;37.614;15.072;2023-09-19T06:57:35;24.50;52.96
73780;SHT30;62093;37.614;15.072;2023-09-19T07:00:02;24.53;52.94
73780;SHT30;62093;37.614;15.072;2023-09-19T07:02:28;24.50;52.94
73780;SHT30;62093;37.614;15.072;2023-09-19T07:04:54;24.50;52.94
73780;SHT30;62093;37.614;15.072;2023-09-19T07:07:20;24.51;52.94
73780;SHT30;62093;37.614;15.072;2023-09-19T07:09:46;24.51;52.77
73780;SHT30;62093;37.614;15.072;2023-09-19T07:12:14;24.53;53.00
73780;SHT30;62093;37.614;15.072;2023-09-19T07:14:40;24.51;52.98
73780;SHT30;62093;37.614;15.072;2023-09-19T07:17:06;24.53;52.81
73780;SHT30;62093;37.614;15.072;2023-09-19T07:19:33;24.53;52.50
73780;SHT30;62093;37.614;15.072;2023-09-19T07:21:59;24.54;52.60
73780;SHT30;62093;37.614;15.072;2023-09-19T07:24:28;24.53;52.43
73780;SHT30;62093;37.614;15.072;2023-09-19T07:26:54;24.56;52.52
73780;SHT30;62093;37.614;15.072;2023-09-19T07:29:20;24.54;52.46
73780;SHT30;62093;37.614;15.072;2023-09-19T07:31:46;24.56;52.66
73780;SHT30;62093;37.614;15.072;2023-09-19T07:34:13;24.58;52.70
73780;SHT30;62093;37.614;15.072;2023-09-19T07:36:39;24.58;52.78
73780;SHT30;62093;37.614;15.072;2023-09-19T07:39:07;24.57;52.85
73780;SHT30;62093;37.614;15.072;2023-09-19T07:41:34;24.58;52.83
73780;SHT30;62093;37.614;15.072;2023-09-19T07:44:00;24.61;52.84
73780;SHT30;62093;37.614;15.072;2023-09-19T07:46:26;24.60;52.88
73780;SHT30;62093;37.614;15.072;2023-09-19T07:48:52;24.61;52.96
73780;SHT30;62093;37.614;15.072;2023-09-19T07:51:18;24.61;52.95
73780;SHT30;62093;37.614;15.072;2023-09-19T07:53:44;24.60;53.00
73780;SHT30;62093;37.614;15.072;2023-09-19T07:56:10;24.64;52.95
73780;SHT30;62093;37.614;15.072;2023-09-19T07:58:39;24.65;52.98
73780;SHT30;62093;37.614;15.072;2023-09-19T08:01:08;24.63;52.98
73780;SHT30;62093;37.614;15.072;2023-09-19T08:03:34;24.67;53.07
73780;SHT30;62093;37.614;15.072;2023-09-19T08:06:03;24.67;53.04
73780;SHT30;62093;37.614;15.072;2023-09-19T08:08:30;24.67;53.01
73780;SHT30;62093;37.614;15.072;2023-09-19T08:10:59;24.67;52.99
73780;SHT30;62093;37.614;15.072;2023-09-19T08:13:25;24.65;52.98
73780;SHT30;62093;37.614;15.072;2023-09-19T08:15:52;24.67;53.02
73780;SHT30;62093;37.614;15.072;2023-09-19T08:18:21;24.67;52.98
73780;SHT30;62093;37.614;15.072;2023-09-19T08:20:52;24.68;53.00
73780;SHT30;62093;37.614;15.072;2023-09-19T08:23:18;24.67;53.00
73780;SHT30;62093;37.614;15.072;2023-09-19T08:25:47;24.71;53.00
73780;SHT30;62093;37.614;15.072;2023-09-19T08:28:13;24.67;53.03
73780;SHT30;62093;37.614;15.072;2023-09-19T08:30:47;24.71;53.04
73780;SHT30;62093;37.614;15.072;2023-09-19T08:33:13;24.71;53.00
73780;SHT30;62093;37.614;15.072;2023-09-19T08:35:41;24.72;52.99
73780;SHT30;62093;37.614;15.072;2023-09-19T08:38:09;24.71;53.00
73780;SHT30;62093;37.614;15.072;2023-09-19T08:40:37;24.72;52.93
73780;SHT30;62093;37.614;15.072;2023-09-19T08:43:10;24.74;52.90
73780;SHT30;62093;37.614;15.072;2023-09-19T08:45:36;24.74;52.86
73780;SHT30;62093;37.614;15.072;2023-09-19T08:51:07;24.75;52.83
73780;SHT30;62093;37.614;15.072;2023-09-19T08:53:44;24.77;52.88
73780;SHT30;62093;37.614;15.072;2023-09-19T08:56:17;24.78;52.80
73780;SHT30;62093;37.614;15.072;2023-09-19T09:01:15;24.78;52.76
73780;SHT30;62093;37.614;15.072;2023-09-19T09:03:43;24.78;52.70
73780;SHT30;62093;37.614;15.072;2023-09-19T09:06:14;24.78;52.72
73780;SHT30;62093;37.614;15.072;2023-09-19T09:08:42;24.81;52.69
73780;SHT30;62093;37.614;15.072;2023-09-19T09:11:08;24.79;52.63
73780;SHT30;62093;37.614;15.072;2023-09-19T09:13:36;24.79;52.60
73780;SHT30;62093;37.614;15.072;2023-09-19T09:16:02;24.81;52.61
73780;SHT30;62093;37.614;15.072;2023-09-19T09:18:31;24.82;52.55
73780;SHT30;62093;37.614;15.072;2023-09-19T09:20:57;24.84;52.71
73780;SHT30;62093;37.614;15.072;2023-09-19T09:23:23;24.84;52.61
73780;SHT30;62093;37.614;15.072;2023-09-19T09:25:54;24.85;52.55
73780;SHT30;62093;37.614;15.072;2023-09-19T09:28:27;24.85;52.50
73780;SHT30;62093;37.614;15.072;2023-09-19T09:30:57;24.84;52.44
73780;SHT30;62093;37.614;15.072;2023-09-19T09:33:24;24.84;52.40
73780;SHT30;62093;37.614;15.072;2023-09-19T09:35:56;24.85;52.43
73780;SHT30;62093;37.614;15.072;2023-09-19T09:38:25;24.87;52.45
73780;SHT30;62093;37.614;15.072;2023-09-19T09:40:54;24.88;52.42
73780;SHT30;62093;37.614;15.072;2023-09-19T09:43:34;24.88;52.44
73780;SHT30;62093;37.614;15.072;2023-09-19T09:46:16;24.89;52.39
73780;SHT30;62093;37.614;15.072;2023-09-19T09:51:43;24.91;52.31
73780;SHT30;62093;37.614;15.072;2023-09-19T09:54:15;24.94;52.28
73780;SHT30;62093;37.614;15.072;2023-09-19T09:56:58;24.94;52.24
73780;SHT30;62093;37.614;15.072;2023-09-19T10:02:24;24.95;52.24
73780;SHT30;62093;37.614;15.072;2023-09-19T10:04:57;24.96;52.34
73780;SHT30;62093;37.614;15.072;2023-09-19T10:07:50;24.95;52.20
73780;SHT30;62093;37.614;15.072;2023-09-19T10:10:31;24.96;52.24
73780;SHT30;62093;37.614;15.072;2023-09-19T10:13:13;24.98;52.17
73780;SHT30;62093;37.614;15.072;2023-09-19T10:15:49;24.98;52.21
73780;SHT30;62093;37.614;15.072;2023-09-19T10:18:27;24.96;52.15
73780;SHT30;62093;37.614;15.072;2023-09-19T10:20:59;25.01;52.09
73780;SHT30;62093;37.614;15.072;2023-09-19T10:23:31;25.02;52.28
73780;SHT30;62093;37.614;15.072;2023-09-19T10:26:01;25.02;52.01
73780;SHT30;62093;37.614;15.072;2023-09-19T10:28:28;25.02;51.99
73780;SHT30;62093;37.614;15.072;2023-09-19T10:31:00;25.02;52.21
73780;SHT30;62093;37.614;15.072;2023-09-19T10:33:26;25.04;51.96
73780;SHT30;62093;37.614;15.072;2023-09-19T10:35:53;25.04;51.90
73780;SHT30;62093;37.614;15.072;2023-09-19T10:38:24;25.05;51.73
73780;SHT30;62093;37.614;15.072;2023-09-19T10:40:55;25.05;51.89
73780;SHT30;62093;37.614;15.072;2023-09-19T10:43:26;25.07;51.68
73780;SHT30;62093;37.614;15.072;2023-09-19T10:46:00;25.07;51.70
73780;SHT30;62093;37.614;15.072;2023-09-19T10:48:27;25.09;51.54
73780;SHT30;62093;37.614;15.072;2023-09-19T10:51:07;25.07;51.55
73780;SHT30;62093;37.614;15.072;2023-09-19T10:53:54;25.09;51.40
73780;SHT30;62093;37.614;15.072;2023-09-19T10:56:31;25.11;51.40
73780;SHT30;62093;37.614;15.072;2023-09-19T10:59:18;25.12;51.41
73780;SHT30;62093;37.614;15.072;2023-09-19T11:01:50;25.09;51.19
73780;SHT30;62093;37.614;15.072;2023-09-19T11:04:31;25.12;51.29
73780;SHT30;62093;37.614;15.072;2023-09-19T11:09:49;25.16;51.05
73780;SHT30;62093;37.614;15.072;2023-09-19T11:26:48;25.18;50.68
73780;SHT30;62093;37.614;15.072;2023-09-19T11:29:26;25.19;50.82
73780;SHT30;62093;37.614;15.072;2023-09-19T11:31:54;25.20;50.65
73780;SHT30;62093;37.614;15.072;2023-09-19T11:40:09;25.20;50.33
73780;SHT30;62093;37.614;15.072;2023-09-19T11:42:48;25.22;50.15
73780;SHT30;62093;37.614;15.072;2023-09-19T11:51:13;25.22;49.75
73780;SHT30;62093;37.614;15.072;2023-09-19T11:53:42;25.25;49.74
73780;SHT30;62093;37.614;15.072;2023-09-19T11:56:10;25.23;49.75
73780;SHT30;62093;37.614;15.072;2023-09-19T11:58:37;25.25;49.78
73780;SHT30;62093;37.614;15.072;2023-09-19T12:01:04;25.26;49.68
73780;SHT30;62093;37.614;15.072;2023-09-19T12:03:35;25.26;49.49
73780;SHT30;62093;37.614;15.072;2023-09-19T12:06:10;25.28;49.44
73780;SHT30;62093;37.614;15.072;2023-09-19T12:08:41;25.26;49.43
73780;SHT30;62093;37.614;15.072;2023-09-19T12:11:12;25.28;49.52
73780;SHT30;62093;37.614;15.072;2023-09-19T12:13:45;25.30;49.30
73780;SHT30;62093;37.614;15.072;2023-09-19T12:16:16;25.30;49.29
73780;SHT30;62093;37.614;15.072;2023-09-19T12:18:46;25.30;49.21
73780;SHT30;62093;37.614;15.072;2023-09-19T12:23:58;25.32;49.18
73780;SHT30;62093;37.614;15.072;2023-09-19T12:26:26;25.32;49.05
73780;SHT30;62093;37.614;15.072;2023-09-19T12:28:54;25.33;48.99
73780;SHT30;62093;37.614;15.072;2023-09-19T12:31:21;25.35;48.89
73780;SHT30;62093;37.614;15.072;2023-09-19T12:33:53;25.33;48.91
73780;SHT30;62093;37.614;15.072;2023-09-19T12:36:21;25.36;48.85
73780;SHT30;62093;37.614;15.072;2023-09-19T12:38:58;25.35;48.74
73780;SHT30;62093;37.614;15.072;2023-09-19T12:41:26;25.36;48.73
73780;SHT30;62093;37.614;15.072;2023-09-19T12:43:53;25.39;48.60
73780;SHT30;62093;37.614;15.072;2023-09-19T12:46:22;25.36;48.72
73780;SHT30;62093;37.614;15.072;2023-09-19T12:49:17;25.39;48.66
73780;SHT30;62093;37.614;15.072;2023-09-19T12:51:48;25.42;48.96
73780;SHT30;62093;37.614;15.072;2023-09-19T12:54:15;25.40;48.70
73780;SHT30;62093;37.614;15.072;2023-09-19T12:56:43;25.43;48.61
73780;SHT30;62093;37.614;15.072;2023-09-19T12:59:15;25.45;48.58
73780;SHT30;62093;37.614;15.072;2023-09-19T13:01:42;25.46;48.52
73780;SHT30;62093;37.614;15.072;2023-09-19T13:04:21;25.43;48.45
73780;SHT30;62093;37.614;15.072;2023-09-19T13:06:55;25.47;48.47
73780;SHT30;62093;37.614;15.072;2023-09-19T13:09:24;25.46;48.29
73780;SHT30;62093;37.614;15.072;2023-09-19T13:11:54;25.46;48.43
73780;SHT30;62093;37.614;15.072;2023-09-19T13:14:25;25.46;48.32
73780;SHT30;62093;37.614;15.072;2023-09-19T13:16:59;25.46;48.13
73780;SHT30;62093;37.614;15.072;2023-09-19T13:22:01;25.51;48.48
73780;SHT30;62093;37.614;15.072;2023-09-19T13:24:28;25.50;48.12
73780;SHT30;62093;37.614;15.072;2023-09-19T13:26:56;25.53;48.20
73780;SHT30;62093;37.614;15.072;2023-09-19T13:29:22;25.50;47.94
73780;SHT30;62093;37.614;15.072;2023-09-19T13:31:52;25.51;48.01
73780;SHT30;62093;37.614;15.072;2023-09-19T13:34:19;25.53;47.94
73780;SHT30;62093;37.614;15.072;2023-09-19T13:36:46;25.54;48.03
73780;SHT30;62093;37.614;15.072;2023-09-19T13:39:15;25.56;47.96
73780;SHT30;62093;37.614;15.072;2023-09-19T13:41:44;25.54;47.83
73780;SHT30;62093;37.614;15.072;2023-09-19T13:44:09;25.57;47.85
73780;SHT30;62093;37.614;15.072;2023-09-19T13:46:39;25.59;47.79
73780;SHT30;62093;37.614;15.072;2023-09-19T13:49:06;25.60;47.88
73780;SHT30;62093;37.614;15.072;2023-09-19T13:51:32;25.57;47.67
73780;SHT30;62093;37.614;15.072;2023-09-19T13:53:58;25.60;47.66
73780;SHT30;62093;37.614;15.072;2023-09-19T13:56:25;25.59;47.22
73780;SHT30;62093;37.614;15.072;2023-09-19T13:58:56;25.62;47.25
73780;SHT30;62093;37.614;15.072;2023-09-19T14:01:22;25.65;47.20
73780;SHT30;62093;37.614;15.072;2023-09-19T14:03:48;25.66;48.07
73780;SHT30;62093;37.614;15.072;2023-09-19T14:06:18;25.67;47.66
73780;SHT30;62093;37.614;15.072;2023-09-19T14:08:44;25.71;48.24
73780;SHT30;62093;37.614;15.072;2023-09-19T14:11:13;25.74;48.03
73780;SHT30;62093;37.614;15.072;2023-09-19T14:13:42;25.73;47.62
73780;SHT30;62093;37.614;15.072;2023-09-19T14:16:15;25.71;47.97
73780;SHT30;62093;37.614;15.072;2023-09-19T14:18:41;25.73;48.08
73780;SHT30;62093;37.614;15.072;2023-09-19T14:21:07;25.73;47.92
73780;SHT30;62093;37.614;15.072;2023-09-19T14:23:37;25.77;48.09
73780;SHT30;62093;37.614;15.072;2023-09-19T14:26:04;25.78;47.78
73780;SHT30;62093;37.614;15.072;2023-09-19T14:28:32;25.78;47.99
73780;SHT30;62093;37.614;15.072;2023-09-19T14:31:09;25.81;47.72
73780;SHT30;62093;37.614;15.072;2023-09-19T14:33:36;25.77;47.69
73780;SHT30;62093;37.614;15.072;2023-09-19T14:36:06;25.80;47.61
73780;SHT30;62093;37.614;15.072;2023-09-19T14:38:34;25.77;47.44
73780;SHT30;62093;37.614;15.072;2023-09-19T14:41:02;25.78;48.04
73780;SHT30;62093;37.614;15.072;2023-09-19T14:43:28;25.81;47.85
73780;SHT30;62093;37.614;15.072;2023-09-19T14:46:05;25.83;47.56
73780;SHT30;62093;37.614;15.072;2023-09-19T14:48:33;25.81;47.98
73780;SHT30;62093;37.614;15.072;2023-09-19T14:51:08;25.81;47.88
73780;SHT30;62093;37.614;15.072;2023-09-19T14:53:35;25.81;47.65
73780;SHT30;62093;37.614;15.072;2023-09-19T14:56:01;25.81;47.76
73780;SHT30;62093;37.614;15.072;2023-09-19T14:58:32;25.81;47.31
73780;SHT30;62093;37.614;15.072;2023-09-19T15:01:07;25.83;47.53
73780;SHT30;62093;37.614;15.072;2023-09-19T15:03:34;25.81;47.06
73780;SHT30;62093;37.614;15.072;2023-09-19T15:06:05;25.87;47.26
73780;SHT30;62093;37.614;15.072;2023-09-19T15:08:32;25.84;47.52
73780;SHT30;62093;37.614;15.072;2023-09-19T15:11:03;25.84;47.50
73780;SHT30;62093;37.614;15.072;2023-09-19T15:13:32;25.87;47.58
73780;SHT30;62093;37.614;15.072;2023-09-19T15:16:07;25.90;47.48
73780;SHT30;62093;37.614;15.072;2023-09-19T15:18:38;25.87;47.19
73780;SHT30;62093;37.614;15.072;2023-09-19T15:21:05;25.91;47.01
73780;SHT30;62093;37.614;15.072;2023-09-19T15:23:32;25.87;47.10
73780;SHT30;62093;37.614;15.072;2023-09-19T15:26:09;25.88;47.21
73780;SHT30;62093;37.614;15.072;2023-09-19T15:28:37;25.87;47.26
73780;SHT30;62093;37.614;15.072;2023-09-19T15:31:08;25.88;47.10
73780;SHT30;62093;37.614;15.072;2023-09-19T15:33:34;25.88;47.21
73780;SHT30;62093;37.614;15.072;2023-09-19T15:36:08;25.88;47.25
73780;SHT30;62093;37.614;15.072;2023-09-19T15:38:57;25.91;47.39
73780;SHT30;62093;37.614;15.072;2023-09-19T15:41:24;25.88;47.49
73780;SHT30;62093;37.614;15.072;2023-09-19T15:43:49;25.90;47.32
73780;SHT30;62093;37.614;15.072;2023-09-19T15:46:15;25.90;47.18
73780;SHT30;62093;37.614;15.072;2023-09-19T15:48:42;25.93;47.40
73780;SHT30;62093;37.614;15.072;2023-09-19T15:51:08;25.90;47.26
73780;SHT30;62093;37.614;15.072;2023-09-19T15:53:48;25.94;47.23
73780;SHT30;62093;37.614;15.072;2023-09-19T15:56:17;25.91;47.33
73780;SHT30;62093;37.614;15.072;2023-09-19T15:58:44;25.91;47.43
73780;SHT30;62093;37.614;15.072;2023-09-19T16:01:10;25.94;47.48
73780;SHT30;62093;37.614;15.072;2023-09-19T16:03:37;25.94;47.42
73780;SHT30;62093;37.614;15.072;2023-09-19T16:06:15;25.93;47.56
73780;SHT30;62093;37.614;15.072;2023-09-19T16:08:42;25.91;47.57
73780;SHT30;62093;37.614;15.072;2023-09-19T16:11:08;25.88;47.54
73780;SHT30;62093;37.614;15.072;2023-09-19T16:13:36;25.96;47.59
73780;SHT30;62093;37.614;15.072;2023-09-19T16:16:01;25.93;47.67
73780;SHT30;62093;37.614;15.072;2023-09-19T16:18:27;25.90;47.56
73780;SHT30;62093;37.614;15.072;2023-09-19T16:20:54;25.88;47.54
73780;SHT30;62093;37.614;15.072;2023-09-19T16:23:25;25.87;47.50
73780;SHT30;62093;37.614;15.072;2023-09-19T16:26:03;25.90;47.79
73780;SHT30;62093;37.614;15.072;2023-09-19T16:28:33;25.90;47.63